Time;durP1;ratioP1;P1;durP2;ratioP2;P2;SDS_P1;SDS_P2;PMS_P1;PMS_P2;Temp;Humidity;BMP_temperature;BMP_pressure;BME280_temperature;BME280_humidity;BME280_pressure;Samples;Min_cycle;Max_cycle;Signal;HPM_P1;HPM_P2
2024/01/14 00:00:33;;;;;;;7.75;4.43;;;;;;;19.18;29.91;101671.28;16110136;19;131128;-66
2024/01/14 00:05:55;;;;;;;8.65;3.85;;;;;;;19.14;30.24;101658.09;16106073;19;131542;-66
2024/01/14 00:11:17;;;;;;;5.65;3.63;;;;;;;19.10;29.85;101656.88;16108864;19;129633;-66
2024/01/14 00:16:40;;;;;;;5.82;3.55;;;;;;;19.05;29.98;101652.03;16105694;19;131615;-66
2024/01/14 00:22:02;;;;;;;7.85;3.83;;;;;;;19.01;29.93;101653.59;16105897;19;129709;-65
2024/01/14 00:27:24;;;;;;;6.82;3.28;;;;;;;18.97;29.91;101655.13;16102574;19;131163;-66
2024/01/14 00:32:46;;;;;;;5.00;3.40;;;;;;;18.93;30.36;101651.97;16104533;19;130467;-66
2024/01/14 00:38:08;;;;;;;6.53;3.15;;;;;;;18.88;30.02;101644.34;16100750;19;131609;-64
2024/01/14 00:43:30;;;;;;;5.82;3.88;;;;;;;18.84;30.01;101636.69;16103828;19;130676;-66
2024/01/14 00:48:52;;;;;;;6.85;2.90;;;;;;;18.80;30.22;101630.75;16101598;19;129310;-64
2024/01/14 00:54:14;;;;;;;7.68;3.83;;;;;;;18.75;30.44;101628.69;16105355;19;129534;-65
2024/01/14 00:59:36;;;;;;;6.68;3.90;;;;;;;18.72;30.24;101618.06;16098468;19;129420;-66
2024/01/14 01:04:58;;;;;;;5.07;3.33;;;;;;;18.69;30.30;101607.44;16101099;19;131396;-66
2024/01/14 01:10:20;;;;;;;4.68;3.25;;;;;;;18.65;30.07;101599.78;16111328;19;130311;-66
2024/01/14 01:15:42;;;;;;;6.65;2.95;;;;;;;18.62;30.45;101612.19;16115912;19;129501;-66
2024/01/14 01:21:05;;;;;;;4.55;3.40;;;;;;;18.57;30.29;101601.81;16116638;19;131581;-66
2024/01/14 01:26:27;;;;;;;5.40;3.25;;;;;;;18.54;30.33;101598.66;16119924;19;130664;-65
2024/01/14 01:31:49;;;;;;;6.07;3.70;;;;;;;18.49;30.50;101588.25;16115309;19;131919;-66
2024/01/14 01:37:21;;;;;;;8.05;3.85;;;;;;;18.46;30.21;101585.94;16115388;19;131826;-65
2024/01/14 01:42:44;;;;;;;5.53;3.80;;;;;;;18.44;30.37;101577.88;16113470;19;129920;-66
2024/01/14 01:48:06;;;;;;;6.03;3.83;;;;;;;18.43;30.42;101575.31;16111302;19;130665;-66
2024/01/14 01:53:28;;;;;;;8.48;4.30;;;;;;;18.39;30.38;101571.28;16121478;19;130029;-65
2024/01/14 01:58:52;;;;;;;6.30;3.70;;;;;;;18.36;30.23;101582.81;16115456;19;129322;-65
2024/01/14 02:04:15;;;;;;;5.60;4.00;;;;;;;18.33;30.41;101569.41;16112029;19;129939;-66
2024/01/14 02:09:38;;;;;;;4.85;3.42;;;;;;;18.30;30.29;101549.41;16114850;19;129707;-65
2024/01/14 02:15:00;;;;;;;5.60;3.50;;;;;;;18.27;30.02;101537.94;16112666;19;131719;-65
2024/01/14 02:20:22;;;;;;;6.20;3.58;;;;;;;18.24;30.32;101521.78;16112077;19;129585;-65
2024/01/14 02:25:44;;;;;;;6.00;3.50;;;;;;;18.22;30.15;101533.09;16105989;19;130585;-65
2024/01/14 02:31:07;;;;;;;3.72;2.95;;;;;;;18.19;30.44;101539.09;16113014;19;129371;-65
2024/01/14 02:36:29;;;;;;;4.40;3.05;;;;;;;18.18;30.00;101525.47;16112923;19;130089;-65
2024/01/14 02:41:51;;;;;;;3.97;2.75;;;;;;;18.14;30.24;101514.84;16109041;19;130365;-65
2024/01/14 02:47:13;;;;;;;4.65;2.83;;;;;;;18.14;30.47;101500.16;16107108;19;131460;-65
2024/01/14 02:52:35;;;;;;;4.07;2.60;;;;;;;18.12;30.22;101508.69;16112624;19;133420;-65
2024/01/14 02:57:57;;;;;;;5.00;3.40;;;;;;;18.07;30.30;101483.63;16109742;19;129496;-65
2024/01/14 03:03:19;;;;;;;4.05;2.65;;;;;;;18.07;30.41;101491.06;16112692;19;131813;-65
2024/01/14 03:08:42;;;;;;;4.90;2.90;;;;;;;18.06;30.29;101504.06;16111249;19;130428;-65
2024/01/14 03:14:04;;;;;;;4.93;2.92;;;;;;;18.04;30.10;101484.06;16113091;19;130130;-65
2024/01/14 03:19:26;;;;;;;4.57;3.13;;;;;;;18.02;30.18;101474.31;16109692;19;129472;-65
2024/01/14 03:24:48;;;;;;;3.78;3.13;;;;;;;18.00;30.29;101482.81;16109010;19;129651;-65
2024/01/14 03:30:10;;;;;;;4.82;3.20;;;;;;;17.97;29.98;101488.84;16106388;19;131531;-65
2024/01/14 03:35:32;;;;;;;5.38;3.20;;;;;;;17.95;29.98;101471.63;16108527;19;131725;-65
2024/01/14 03:40:54;;;;;;;4.13;3.03;;;;;;;17.94;30.06;101461.59;16108619;19;133684;-65
2024/01/14 03:46:16;;;;;;;4.43;3.35;;;;;;;17.91;30.41;101471.19;16107710;19;129848;-65
2024/01/14 03:51:38;;;;;;;3.40;3.10;;;;;;;17.90;30.04;101471.44;16105942;19;131533;-64
2024/01/14 03:57:00;;;;;;;5.63;3.72;;;;;;;17.88;30.19;101445.91;16108181;19;129754;-65
2024/01/14 04:02:22;;;;;;;4.35;3.22;;;;;;;17.86;29.89;101437.84;16107201;19;129878;-65
2024/01/14 04:07:49;;;;;;;4.90;3.33;;;;;;;17.84;30.06;101446.38;16108195;19;130543;-65
2024/01/14 04:13:12;;;;;;;5.55;4.28;;;;;;;17.83;30.24;101460.44;16108526;19;130312;-65
2024/01/14 04:18:37;;;;;;;4.60;3.10;;;;;;;17.82;30.03;101443.00;16105877;19;130727;-65
2024/01/14 04:23:59;;;;;;;4.23;3.10;;;;;;;17.79;29.96;101443.44;16107586;19;131028;-65
2024/01/14 04:29:21;;;;;;;5.53;3.60;;;;;;;17.78;29.96;101425.13;16103817;19;131999;-65
2024/01/14 04:34:43;;;;;;;3.95;3.13;;;;;;;17.76;29.97;101405.13;16106830;19;130814;-65
2024/01/14 04:40:06;;;;;;;4.85;3.45;;;;;;;17.74;30.34;101412.81;16105188;19;131061;-65
2024/01/14 04:45:28;;;;;;;5.00;3.30;;;;;;;17.73;30.32;101389.00;16107436;19;129726;-64
2024/01/14 04:50:51;;;;;;;4.28;3.42;;;;;;;17.71;29.82;101402.22;16122072;19;130954;-63
2024/01/14 04:56:13;;;;;;;3.90;3.20;;;;;;;17.69;30.27;101387.78;16118489;19;131312;-65
2024/01/14 05:01:35;;;;;;;5.13;3.45;;;;;;;17.68;30.19;101391.63;16116120;19;130116;-65
2024/01/14 05:06:57;;;;;;;4.50;3.42;;;;;;;17.66;30.02;101404.81;16119928;19;130885;-66
2024/01/14 05:12:19;;;;;;;4.57;3.50;;;;;;;17.64;30.35;101399.53;16122007;19;131622;-65
2024/01/14 05:17:41;;;;;;;5.65;3.40;;;;;;;17.64;30.32;101385.69;16117200;19;131007;-65
2024/01/14 05:23:04;;;;;;;4.35;2.88;;;;;;;17.60;30.20;101378.91;16115559;19;129587;-65
2024/01/14 05:28:26;;;;;;;5.65;4.00;;;;;;;17.58;30.30;101363.63;16115428;19;130894;-64
2024/01/14 05:33:48;;;;;;;5.93;3.78;;;;;;;17.55;29.80;101359.38;16117751;19;131865;-65
2024/01/14 05:39:10;;;;;;;4.85;3.80;;;;;;;17.54;29.82;101361.31;16115557;19;129939;-64
2024/01/14 05:44:32;;;;;;;5.47;3.75;;;;;;;17.52;29.86;101352.34;16115873;19;130071;-65
2024/01/14 05:49:54;;;;;;;5.43;4.00;;;;;;;17.52;29.76;101338.53;16115327;19;134466;-65
2024/01/14 05:55:17;;;;;;;4.65;3.38;;;;;;;17.50;29.99;101337.06;16111258;19;132216;-65
2024/01/14 06:00:38;;;;;;;7.20;3.80;;;;;;;17.48;29.83;101323.44;16108677;19;129400;-65
2024/01/14 06:06:01;;;;;;;5.05;3.40;;;;;;;17.47;29.98;101312.63;16107865;19;131125;-64
2024/01/14 06:11:23;;;;;;;3.97;3.10;;;;;;;17.54;29.79;101302.31;16113631;19;129781;-65
2024/01/14 06:16:45;;;;;;;5.00;3.13;;;;;;;17.70;29.67;101303.69;16110461;19;131122;-65
2024/01/14 06:22:07;;;;;;;4.63;3.50;;;;;;;17.89;29.72;101293.47;16113341;19;130258;-65
2024/01/14 06:27:29;;;;;;;4.53;3.15;;;;;;;18.13;29.53;101294.41;16109825;19;129535;-65
2024/01/14 06:32:54;;;;;;;5.20;3.50;;;;;;;18.38;29.37;101279.56;16110217;19;131299;-65
2024/01/14 06:38:16;;;;;;;6.43;3.50;;;;;;;18.59;29.10;101291.19;16100736;19;131708;-65
2024/01/14 06:43:38;;;;;;;10.43;3.90;;;;;;;18.75;28.55;101295.25;16114666;19;130825;-68
2024/01/14 06:49:00;;;;;;;6.63;3.67;;;;;;;18.82;28.99;101278.50;16110049;19;130341;-67
2024/01/14 06:54:23;;;;;;;9.65;3.40;;;;;;;18.93;28.50;101269.34;16113783;19;129611;-66
2024/01/14 06:59:45;;;;;;;9.65;3.90;;;;;;;19.01;28.48;101271.75;16111607;19;130353;-63
2024/01/14 07:05:09;;;;;;;8.98;3.50;;;;;;;19.10;28.39;101258.38;16113659;19;130954;-68
2024/01/14 07:10:31;;;;;;;14.50;3.37;;;;;;;19.19;28.39;101261.63;16117547;19;130901;-69
2024/01/14 07:15:53;;;;;;;4.53;3.15;;;;;;;19.28;28.27;101251.88;16113594;19;129343;-70
2024/01/14 07:21:15;;;;;;;7.70;3.55;;;;;;;19.32;28.57;101266.94;16116486;19;129866;-69
2024/01/14 07:26:37;;;;;;;4.07;3.13;;;;;;;19.30;28.19;101269.13;16112659;19;129375;-68
2024/01/14 07:31:59;;;;;;;6.57;3.03;;;;;;;19.28;28.58;101268.53;16114326;19;129863;-70
2024/01/14 07:37:30;;;;;;;7.85;3.53;;;;;;;19.24;28.43;101270.09;16111100;19;131330;-68
2024/01/14 07:42:53;;;;;;;5.50;2.90;;;;;;;19.19;28.67;101262.47;16112787;19;129877;-68
2024/01/14 07:48:15;;;;;;;6.55;3.17;;;;;;;19.16;28.50;101267.66;16109491;19;130298;-66
2024/01/14 07:53:37;;;;;;;5.43;3.03;;;;;;;19.12;28.76;101260.91;16106809;19;131788;-65
2024/01/14 07:58:59;;;;;;;5.57;3.10;;;;;;;19.08;28.66;101255.81;16111756;19;129610;-65
2024/01/14 08:04:20;;;;;;;4.90;3.22;;;;;;;19.08;28.72;101258.59;16104555;19;129908;-63
2024/01/14 08:09:42;;;;;;;4.57;3.63;;;;;;;19.08;28.55;101255.81;16113070;19;129555;-72
2024/01/14 08:15:05;;;;;;;4.47;3.20;;;;;;;19.06;28.93;101248.84;16112937;19;129692;-68
2024/01/14 08:20:27;;;;;;;7.75;3.53;;;;;;;19.12;29.25;101245.13;16116541;19;130296;-73
2024/01/14 08:25:49;;;;;;;8.02;3.30;;;;;;;19.29;30.79;101253.56;16117936;19;131138;-69
2024/01/14 08:31:11;;;;;;;8.48;3.38;;;;;;;19.52;30.94;101252.69;16119118;19;130416;-67
2024/01/14 08:36:35;;;;;;;12.07;2.80;;;;;;;19.83;31.34;101250.56;16116556;19;131892;-67
2024/01/14 08:41:57;;;;;;;5.55;3.00;;;;;;;20.15;31.58;101252.03;16121414;19;129998;-67
2024/01/14 08:47:19;;;;;;;5.95;2.95;;;;;;;20.47;31.85;101248.69;16119546;19;129787;-67
2024/01/14 08:52:41;;;;;;;6.45;3.55;;;;;;;20.65;31.64;101241.22;16122409;19;131023;-66
2024/01/14 08:58:03;;;;;;;5.65;3.78;;;;;;;20.67;31.03;101241.81;16119022;19;129706;-68
2024/01/14 09:03:26;;;;;;;5.75;3.97;;;;;;;20.65;31.00;101244.84;16120015;19;129891;-68
2024/01/14 09:08:48;;;;;;;6.18;4.32;;;;;;;20.54;31.29;101248.53;16109917;19;130758;-63
2024/01/14 09:14:10;;;;;;;9.40;4.75;;;;;;;20.41;30.97;101245.00;16119370;19;132989;-64
2024/01/14 09:19:32;;;;;;;6.70;4.40;;;;;;;20.35;30.91;101240.44;16118467;19;129796;-63
2024/01/14 09:24:54;;;;;;;19.48;4.43;;;;;;;20.30;31.45;101229.25;16117783;19;129616;-66
2024/01/14 09:30:16;;;;;;;8.98;5.10;;;;;;;20.36;31.48;101233.81;16118497;19;130355;-61
2024/01/14 09:35:38;;;;;;;11.43;4.40;;;;;;;20.50;31.39;101225.97;16118675;19;130981;-64
2024/01/14 09:41:21;;;;;;;12.93;5.00;;;;;;;20.75;30.88;101224.72;16118687;19;131008;-62
2024/01/14 09:46:44;;;;;;;17.40;4.10;;;;;;;20.96;30.53;101228.69;16117094;19;129785;-62
2024/01/14 09:52:08;;;;;;;10.30;4.40;;;;;;;21.16;30.67;101228.16;16112699;19;132436;-62
2024/01/14 09:57:30;;;;;;;8.85;3.58;;;;;;;21.27;30.41;101218.00;16111298;19;130122;-62
2024/01/14 10:02:52;;;;;;;7.25;3.58;;;;;;;21.40;30.42;101214.00;16110018;19;129808;-62
2024/01/14 10:08:14;;;;;;;15.30;3.97;;;;;;;21.50;30.13;101208.59;16109780;19;131754;-63
2024/01/14 10:13:36;;;;;;;17.15;4.18;;;;;;;21.55;30.53;101193.88;16107663;19;132163;-62
2024/01/14 10:18:58;;;;;;;15.48;3.28;;;;;;;21.53;30.30;101187.75;16113453;19;130221;-63
2024/01/14 10:24:21;;;;;;;15.00;3.85;;;;;;;21.45;30.93;101185.38;16113175;19;130253;-63
2024/01/14 10:29:43;;;;;;;20.60;3.50;;;;;;;21.33;30.82;101172.44;16108315;19;129685;-63
2024/01/14 10:35:09;;;;;;;18.98;4.00;;;;;;;21.25;30.86;101174.84;16110020;19;129849;-62
2024/01/14 10:40:32;;;;;;;19.98;4.57;;;;;;;21.12;30.36;101159.34;16111182;19;130143;-66
2024/01/14 10:45:54;;;;;;;14.25;3.85;;;;;;;21.01;30.90;101162.00;16112737;19;130698;-64
2024/01/14 10:51:19;;;;;;;15.18;4.22;;;;;;;20.98;30.77;101145.84;16109517;19;129652;-63
2024/01/14 10:56:56;;;;;;;17.58;5.00;;;;;;;21.06;30.35;101139.81;16110257;19;132596;-62
2024/01/14 11:02:18;;;;;;;11.23;4.53;;;;;;;21.12;29.96;101121.25;16110482;19;129595;-62
2024/01/14 11:07:40;;;;;;;11.82;4.00;;;;;;;21.21;30.13;101114.13;16109367;19;130859;-62
2024/01/14 11:13:25;;;;;;;12.20;3.40;;;;;;;21.36;29.72;101104.28;16100743;19;129348;-66
2024/01/14 11:19:03;;;;;;;18.85;3.50;;;;;;;21.49;29.87;101098.34;16106322;19;131661;-63
2024/01/14 11:24:40;;;;;;;10.18;3.58;;;;;;;21.67;29.54;101076.78;16106901;19;131500;-63
2024/01/14 11:30:03;;;;;;;16.52;3.17;;;;;;;21.84;29.63;101062.78;16109920;19;130485;-62
2024/01/14 11:35:35;;;;;;;9.60;3.13;;;;;;;22.01;29.66;101054.28;16108151;19;130041;-62
2024/01/14 11:40:57;;;;;;;10.20;2.97;;;;;;;22.15;29.51;101042.69;16108816;19;130286;-62
2024/01/14 11:46:38;;;;;;;9.20;2.80;;;;;;;22.32;28.98;101032.22;16110969;19;131436;-63
2024/01/14 11:52:03;;;;;;;11.95;2.67;;;;;;;22.40;29.41;101028.91;16108527;19;130639;-62
2024/01/14 11:57:24;;;;;;;10.38;3.47;;;;;;;22.50;28.80;101022.56;16106961;19;130330;-62
2024/01/14 12:02:46;;;;;;;10.35;3.25;;;;;;;22.58;28.53;101013.72;16104638;19;131720;-65
2024/01/14 12:08:09;;;;;;;10.15;2.67;;;;;;;22.63;28.85;101004.53;16100706;19;129913;-65
2024/01/14 12:13:31;;;;;;;14.32;3.45;;;;;;;22.58;28.88;100990.53;16105315;19;129725;-66
2024/01/14 12:18:53;;;;;;;24.15;3.15;;;;;;;22.52;29.26;100980.50;16103386;19;130817;-65
2024/01/14 12:24:15;;;;;;;17.88;3.20;;;;;;;22.53;28.96;100971.84;16108397;19;132557;-65
2024/01/14 12:29:37;;;;;;;20.35;3.55;;;;;;;22.54;29.17;100967.09;16105498;19;129589;-64
2024/01/14 12:34:59;;;;;;;12.25;3.20;;;;;;;22.53;28.99;100955.13;16105177;19;130429;-65
2024/01/14 12:40:21;;;;;;;12.02;2.97;;;;;;;22.52;28.83;100952.63;16108079;19;129368;-64
2024/01/14 12:45:47;;;;;;;8.82;2.42;;;;;;;22.51;28.76;100946.19;16104658;19;129503;-64
2024/01/14 12:51:10;;;;;;;9.93;2.80;;;;;;;22.52;29.06;100927.53;16105439;19;129854;-65
2024/01/14 12:56:32;;;;;;;8.55;2.45;;;;;;;22.54;28.61;100922.50;16105961;19;129819;-64
2024/01/14 13:01:54;;;;;;;16.52;3.05;;;;;;;22.55;28.79;100910.22;16104869;19;129563;-64
2024/01/14 13:07:16;;;;;;;15.68;6.32;;;;;;;22.46;27.56;100915.50;16116616;19;130483;-60
2024/01/14 13:12:39;;;;;;;9.68;4.55;;;;;;;22.32;27.30;100900.41;16096414;19;131782;-62
2024/01/14 13:18:02;;;;;;;17.85;4.80;;;;;;;22.18;27.06;100900.00;16111839;19;130544;-60
2024/01/14 13:23:31;;;;;;;22.45;5.20;;;;;;;22.09;27.02;100892.19;16121513;19;132248;-64
2024/01/14 13:28:53;;;;;;;16.73;4.72;;;;;;;21.95;27.16;100889.06;16116409;19;129718;-65
2024/01/14 13:34:18;;;;;;;36.60;4.72;;;;;;;21.82;27.59;100887.56;16124254;19;131418;-62
2024/01/14 13:39:41;;;;;;;39.90;4.60;;;;;;;21.74;27.41;100871.38;16120212;19;132276;-61
2024/01/14 13:45:03;;;;;;;23.35;4.47;;;;;;;21.64;27.78;100874.09;16117143;19;129387;-62
2024/01/14 13:50:25;;;;;;;30.80;3.75;;;;;;;21.53;28.03;100859.28;16112044;19;130411;-62
2024/01/14 13:55:50;;;;;;;36.10;4.47;;;;;;;21.41;28.36;100851.09;16118037;19;129501;-62
2024/01/14 14:01:12;;;;;;;22.83;4.05;;;;;;;21.28;28.27;100841.25;16117837;19;129712;-62
2024/01/14 14:06:35;;;;;;;15.40;3.60;;;;;;;21.15;28.38;100836.13;16112284;19;130105;-63
2024/01/14 14:12:00;;;;;;;22.40;4.05;;;;;;;21.09;28.54;100829.69;16110736;19;131405;-62
2024/01/14 14:17:26;;;;;;;20.75;3.42;;;;;;;21.06;28.80;100816.31;16115357;19;130313;-62
2024/01/14 14:22:48;;;;;;;18.13;3.80;;;;;;;21.02;29.31;100807.66;16104721;19;132618;-62
2024/01/14 14:28:10;;;;;;;13.90;3.22;;;;;;;20.99;29.62;100794.28;16115311;19;130747;-62
2024/01/14 14:33:32;;;;;;;12.70;2.40;;;;;;;21.03;29.30;100792.66;16115708;19;130857;-63
2024/01/14 14:38:54;;;;;;;15.73;2.60;;;;;;;21.12;29.22;100781.88;16108859;19;131451;-65
2024/01/14 14:44:16;;;;;;;10.98;2.55;;;;;;;21.20;29.01;100753.56;16109475;19;130405;-62
2024/01/14 14:49:39;;;;;;;9.32;2.78;;;;;;;21.28;28.83;100782.81;16109248;19;131313;-63
2024/01/14 14:55:01;;;;;;;8.88;2.88;;;;;;;21.33;28.98;100762.53;16110950;19;130727;-63
2024/01/14 15:00:23;;;;;;;8.10;2.20;;;;;;;21.39;29.01;100746.69;16106621;19;131358;-64
2024/01/14 15:05:46;;;;;;;7.13;2.58;;;;;;;21.43;28.98;100754.25;16108876;19;130434;-64
2024/01/14 15:11:08;;;;;;;9.85;2.55;;;;;;;21.46;28.92;100747.31;16107763;19;129976;-66
2024/01/14 15:16:36;;;;;;;14.50;3.42;;;;;;;21.48;28.63;100740.38;16108674;19;133382;-66
2024/01/14 15:21:58;;;;;;;8.95;3.25;;;;;;;21.45;28.12;100735.31;16109185;19;129464;-73
2024/01/14 15:27:43;;;;;;;16.95;3.40;;;;;;;21.44;28.20;100721.69;16107024;19;129648;-65
2024/01/14 15:33:05;;;;;;;11.40;3.22;;;;;;;21.42;28.18;100713.59;16113952;19;129670;-72
2024/01/14 15:38:28;;;;;;;6.90;3.40;;;;;;;21.43;28.34;100720.03;16122697;19;130895;-73
2024/01/14 15:43:52;;;;;;;9.40;3.05;;;;;;;21.47;28.43;100716.41;16122310;19;129348;-71
2024/01/14 15:49:14;;;;;;;6.60;3.15;;;;;;;21.48;28.38;100712.53;16116284;19;130629;-67
2024/01/14 15:54:36;;;;;;;9.98;2.95;;;;;;;21.50;28.21;100702.00;16121070;19;131142;-73
2024/01/14 15:59:58;;;;;;;7.95;2.88;;;;;;;21.47;28.27;100699.72;16119681;19;129463;-67
2024/01/14 16:05:20;;;;;;;9.98;2.70;;;;;;;21.46;28.39;100697.22;16115351;19;131338;-67
2024/01/14 16:10:47;;;;;;;16.92;3.30;;;;;;;21.43;28.47;100694.97;16117972;19;129578;-66
2024/01/14 16:16:26;;;;;;;8.95;3.10;;;;;;;21.35;28.87;100686.00;16117597;19;129259;-63
2024/01/14 16:21:48;;;;;;;7.43;2.60;;;;;;;21.32;28.72;100686.56;16117693;19;130179;-68
2024/01/14 16:27:10;;;;;;;11.23;3.30;;;;;;;21.30;29.03;100682.38;16122191;19;130223;-68
2024/01/14 16:32:32;;;;;;;8.55;3.03;;;;;;;21.25;29.13;100685.16;16123152;19;131089;-67
2024/01/14 16:37:54;;;;;;;10.85;3.20;;;;;;;21.18;29.24;100683.44;16128477;19;132025;-65
2024/01/14 16:43:16;;;;;;;14.13;3.05;;;;;;;21.17;29.08;100684.53;16137627;19;131973;-66
2024/01/14 16:48:39;;;;;;;11.32;2.95;;;;;;;21.10;29.55;100667.25;16143020;19;129701;-66
2024/01/14 16:54:02;;;;;;;5.35;2.90;;;;;;;21.04;29.39;100665.56;16145200;19;129732;-67
2024/01/14 16:59:27;;;;;;;6.28;3.22;;;;;;;20.94;29.63;100646.03;16135806;19;130696;-67
2024/01/14 17:04:49;;;;;;;10.57;4.50;;;;;;;20.93;29.51;100645.19;16120964;19;129711;-67
2024/01/14 17:10:12;;;;;;;17.52;6.85;;;;;;;21.02;29.19;100649.13;16124174;19;129761;-67
2024/01/14 17:15:33;;;;;;;51.47;13.95;;;;;;;21.13;29.29;100655.59;16120785;19;132767;-66
2024/01/14 17:20:56;;;;;;;58.80;19.13;;;;;;;21.17;29.46;100658.66;16122110;19;133886;-68
2024/01/14 17:26:18;;;;;;;76.68;23.23;;;;;;;21.16;29.16;100649.50;16122703;19;129438;-73
2024/01/14 17:31:40;;;;;;;124.88;40.20;;;;;;;21.12;30.14;100648.34;16117965;19;130306;-68
2024/01/14 17:37:02;;;;;;;149.75;44.28;;;;;;;21.14;30.46;100650.84;16123883;19;129414;-72
2024/01/14 17:42:24;;;;;;;140.95;43.17;;;;;;;21.25;30.40;100635.06;16120577;19;129909;-68
2024/01/14 17:47:46;;;;;;;133.73;41.10;;;;;;;21.37;30.23;100632.91;16115864;19;130166;-69
2024/01/14 17:53:08;;;;;;;138.50;41.40;;;;;;;21.44;30.10;100619.56;16121039;19;130250;-78
2024/01/14 17:58:30;;;;;;;118.63;37.78;;;;;;;21.47;30.40;100621.78;16125733;19;131174;-80
2024/01/14 18:03:52;;;;;;;122.15;38.22;;;;;;;21.49;30.19;100614.03;16116791;19;129465;-67
2024/01/14 18:09:14;;;;;;;108.03;35.30;;;;;;;21.47;30.14;100607.06;16113285;19;130259;-67
2024/01/14 18:14:36;;;;;;;105.50;34.40;;;;;;;21.50;29.92;100599.03;16115988;19;132173;-69
2024/01/14 18:19:58;;;;;;;101.78;28.90;;;;;;;21.55;29.13;100597.34;16103355;19;130625;-70
2024/01/14 18:25:20;;;;;;;78.22;24.98;;;;;;;21.63;29.09;100588.47;16108817;19;130546;-67
2024/01/14 18:30:42;;;;;;;66.18;22.88;;;;;;;21.78;28.66;100584.88;16108461;19;130579;-67
2024/01/14 18:36:06;;;;;;;58.83;21.02;;;;;;;22.01;27.95;100586.28;16107814;19;129863;-68
2024/01/14 18:41:28;;;;;;;64.00;19.58;;;;;;;22.24;27.59;100570.97;16109494;19;129844;-70
2024/01/14 18:46:50;;;;;;;53.75;18.25;;;;;;;22.46;27.27;100580.16;16115245;19;129767;-73
2024/01/14 18:52:12;;;;;;;54.13;17.65;;;;;;;22.63;27.53;100580.69;16119525;19;129978;-71
2024/01/14 18:57:34;;;;;;;49.42;15.50;;;;;;;22.78;27.60;100576.19;16124116;19;129935;-69
2024/01/14 19:02:56;;;;;;;39.80;14.60;;;;;;;22.86;27.39;100572.81;16111721;19;129859;-69
2024/01/14 19:08:20;;;;;;;55.03;16.10;;;;;;;22.87;27.40;100580.06;16105089;19;130402;-68
2024/01/14 19:13:42;;;;;;;50.03;14.48;;;;;;;22.82;27.45;100582.88;16105142;19;129997;-68
2024/01/14 19:19:04;;;;;;;51.88;14.25;;;;;;;22.69;27.13;100579.56;16109457;19;131347;-68
2024/01/14 19:24:26;;;;;;;39.70;13.98;;;;;;;22.55;27.03;100587.69;16110009;19;131798;-68
2024/01/14 19:29:48;;;;;;;34.90;12.52;;;;;;;22.39;27.42;100580.44;16103736;19;129760;-68
2024/01/14 19:35:10;;;;;;;30.55;12.43;;;;;;;22.21;27.28;100582.72;16107264;19;131664;-69
2024/01/14 19:40:32;;;;;;;38.58;11.20;;;;;;;22.03;27.45;100583.22;16106557;19;129654;-68
2024/01/14 19:45:54;;;;;;;28.75;12.40;;;;;;;21.88;27.60;100559.00;16104165;19;131017;-68
2024/01/14 19:51:16;;;;;;;31.02;12.02;;;;;;;21.79;27.97;100553.94;16108168;19;129836;-68
2024/01/14 19:56:44;;;;;;;30.80;11.65;;;;;;;21.77;27.74;100559.00;16105464;19;130893;-68
2024/01/14 20:02:06;;;;;;;27.10;10.40;;;;;;;21.77;28.07;100552.56;16112601;19;130008;-77
2024/01/14 20:07:28;;;;;;;23.27;10.07;;;;;;;21.81;28.10;100546.16;16115168;19;130763;-71
2024/01/14 20:12:50;;;;;;;27.60;9.70;;;;;;;21.86;27.93;100556.47;16111891;19;130178;-68
2024/01/14 20:18:12;;;;;;;24.13;9.38;;;;;;;21.95;28.11;100543.69;16105930;19;129829;-65
2024/01/14 20:23:34;;;;;;;25.17;8.98;;;;;;;22.09;28.87;100532.81;16109867;19;130645;-67
2024/01/14 20:28:56;;;;;;;21.67;8.93;;;;;;;22.22;28.60;100525.84;16108989;19;130630;-64
2024/01/14 20:34:23;;;;;;;20.75;9.10;;;;;;;22.33;28.16;100520.28;16108973;19;129836;-65
2024/01/14 20:39:46;;;;;;;23.40;8.50;;;;;;;22.35;27.91;100534.75;16106935;19;129951;-65
2024/01/14 20:45:08;;;;;;;22.63;8.52;;;;;;;22.40;28.06;100532.78;16109399;19;130438;-70
2024/01/14 20:50:30;;;;;;;24.77;7.15;;;;;;;22.50;28.10;100519.97;16156935;19;129024;-69
2024/01/14 20:55:53;;;;;;;18.20;7.72;;;;;;;22.53;27.88;100508.22;16120914;19;129947;-67
2024/01/14 21:06:51;;;;;;;24.38;7.50;;;;;;;22.52;28.08;100496.25;15980634;19;131066;-67
2024/01/14 21:12:14;;;;;;;35.50;8.30;;;;;;;22.49;28.34;100487.63;16099484;19;130241;-68
2024/01/14 21:17:35;;;;;;;35.70;7.53;;;;;;;22.45;27.97;100501.28;16109771;19;129879;-67
2024/01/14 21:23:00;;;;;;;35.97;7.95;;;;;;;22.40;28.28;100493.75;16104134;19;130456;-69
2024/01/14 21:28:22;;;;;;;30.75;7.55;;;;;;;22.33;28.31;100500.78;16115149;19;129881;-67
2024/01/14 21:33:43;;;;;;;24.65;6.65;;;;;;;22.22;28.67;100497.16;16118169;19;129542;-69
2024/01/14 21:39:08;;;;;;;25.48;7.13;;;;;;;22.12;28.72;100498.81;16121652;19;131971;-69
2024/01/14 21:44:30;;;;;;;20.60;7.37;;;;;;;22.02;28.54;100490.47;16121248;19;130620;-69
2024/01/14 21:49:52;;;;;;;22.13;6.50;;;;;;;21.91;28.75;100480.47;16124664;19;131060;-70
2024/01/14 21:55:14;;;;;;;28.05;6.75;;;;;;;21.78;28.58;100463.22;16126927;19;129923;-69
2024/01/14 22:00:37;;;;;;;19.27;6.53;;;;;;;21.65;28.80;100472.94;16121472;19;129681;-67
2024/01/14 22:06:03;;;;;;;26.42;6.90;;;;;;;21.49;29.36;100485.16;16121243;19;130188;-65
2024/01/14 22:11:25;;;;;;;23.05;6.38;;;;;;;21.32;29.23;100479.81;16123038;19;131240;-66
2024/01/14 22:16:47;;;;;;;18.55;7.25;;;;;;;21.17;29.20;100478.69;16118543;19;131108;-66
2024/01/14 22:22:12;;;;;;;24.75;7.30;;;;;;;21.06;29.04;100472.28;16116431;19;130187;-65
2024/01/14 22:27:35;;;;;;;14.98;5.72;;;;;;;20.93;29.16;100466.38;16118066;19;131890;-68
2024/01/14 22:32:57;;;;;;;25.15;7.32;;;;;;;20.81;29.34;100464.69;16117194;19;130219;-66
2024/01/14 22:38:19;;;;;;;18.10;6.40;;;;;;;20.75;28.93;100460.19;16112574;19;130824;-66
2024/01/14 22:43:41;;;;;;;12.85;6.55;;;;;;;20.67;29.08;100464.31;16121369;19;130718;-65
2024/01/14 22:49:03;;;;;;;16.38;6.90;;;;;;;20.54;28.95;100454.56;16118966;19;130832;-65
2024/01/14 22:54:25;;;;;;;13.70;6.00;;;;;;;20.50;28.83;100463.69;16121999;19;130176;-67
2024/01/14 22:59:47;;;;;;;11.35;5.88;;;;;;;20.40;29.04;100468.09;16112193;19;134217;-68
2024/01/14 23:05:09;;;;;;;14.20;5.70;;;;;;;20.33;29.27;100481.38;16115123;19;130621;-69
2024/01/14 23:10:31;;;;;;;11.50;5.47;;;;;;;20.19;29.17;100478.22;16112961;19;129639;-66
2024/01/14 23:15:53;;;;;;;14.52;5.15;;;;;;;20.07;29.41;100478.44;16120594;19;130469;-70
2024/01/14 23:21:15;;;;;;;11.98;5.00;;;;;;;19.97;29.48;100493.06;16114985;19;129426;-66
2024/01/14 23:26:37;;;;;;;7.78;4.53;;;;;;;19.93;29.47;100497.47;16113566;19;131435;-67
2024/01/14 23:31:59;;;;;;;10.43;4.90;;;;;;;19.87;29.66;100479.09;16114283;19;131152;-70
2024/01/14 23:37:21;;;;;;;7.60;4.90;;;;;;;19.83;29.25;100466.84;16111462;19;131319;-67
2024/01/14 23:42:43;;;;;;;13.45;4.72;;;;;;;19.75;29.36;100468.19;16115420;19;129432;-66
2024/01/14 23:48:05;;;;;;;8.05;4.30;;;;;;;19.67;29.74;100469.50;16111269;19;129588;-67
2024/01/14 23:53:28;;;;;;;7.07;4.30;;;;;;;19.65;29.93;100473.63;16114836;19;129363;-67
2024/01/14 23:58:50;;;;;;;8.52;4.00;;;;;;;19.59;29.74;100458.88;16111817;19;130555;-69
